createdAt,value
2018-04-07T00:00:21.206Z,1008
2018-04-07T00:00:47.354Z,1007.95
2018-04-07T00:01:13.529Z,1007.96
2018-04-07T00:01:39.746Z,1007.96
2018-04-07T00:02:05.898Z,1007.95
2018-04-07T00:02:32.076Z,1007.95
2018-04-07T00:02:58.254Z,1007.94
2018-04-07T00:03:24.407Z,1007.93
2018-04-07T00:03:50.595Z,1007.95
2018-04-07T00:04:16.758Z,1007.94
2018-04-07T00:04:42.906Z,1007.96
2018-04-07T00:05:09.112Z,1007.92
2018-04-07T00:05:35.259Z,1007.95
2018-04-07T00:06:01.409Z,1007.9
2018-04-07T00:06:27.588Z,1007.93
2018-04-07T00:06:53.749Z,1007.96
2018-04-07T00:07:19.907Z,1007.9
2018-04-07T00:07:46.082Z,1007.9
2018-04-07T00:08:12.295Z,1007.88
2018-04-07T00:08:38.450Z,1007.85
2018-04-07T00:09:04.627Z,1007.87
2018-04-07T00:09:30.803Z,1007.84
2018-04-07T00:09:56.953Z,1007.87
2018-04-07T00:10:23.129Z,1007.89
2018-04-07T00:10:49.308Z,1007.9
2018-04-07T00:11:15.485Z,1007.85
2018-04-07T00:11:41.646Z,1007.85
2018-04-07T00:12:07.824Z,1007.87
2018-04-07T00:12:33.976Z,1007.88
2018-04-07T00:13:00.151Z,1007.85
2018-04-07T00:13:26.298Z,1007.88
2018-04-07T00:13:52.452Z,1007.85
2018-04-07T00:14:18.630Z,1007.86
2018-04-07T00:14:44.786Z,1007.81
2018-04-07T00:15:10.945Z,1007.79
2018-04-07T00:15:37.099Z,1007.84
2018-04-07T00:16:03.262Z,1007.82
2018-04-07T00:16:29.415Z,1007.85
2018-04-07T00:16:55.575Z,1007.81
2018-04-07T00:17:21.757Z,1007.81
2018-04-07T00:17:47.911Z,1007.83
2018-04-07T00:18:14.077Z,1007.82
2018-04-07T00:18:40.239Z,1007.82
2018-04-07T00:19:06.426Z,1007.84
2018-04-07T00:19:32.574Z,1007.83
2018-04-07T00:19:58.730Z,1007.78
2018-04-07T00:20:24.908Z,1007.81
2018-04-07T00:20:51.058Z,1007.78
2018-04-07T00:21:17.215Z,1007.81
2018-04-07T00:21:43.395Z,1007.76
2018-04-07T00:22:09.550Z,1007.76
2018-04-07T00:22:35.706Z,1007.79
2018-04-07T00:23:01.889Z,1007.78
2018-04-07T00:23:28.038Z,1007.8
2018-04-07T00:23:54.200Z,1007.77
2018-04-07T00:24:20.386Z,1007.78
2018-04-07T00:24:46.542Z,1007.77
2018-04-07T00:25:12.696Z,1007.77
2018-04-07T00:25:38.848Z,1007.79
2018-04-07T00:26:05.048Z,1007.75
2018-04-07T00:26:31.198Z,1007.78
2018-04-07T00:26:57.364Z,1007.79
2018-04-07T00:27:23.540Z,1007.81
2018-04-07T00:27:49.690Z,1007.78
2018-04-07T00:28:15.864Z,1007.79
2018-04-07T00:28:42.010Z,1007.77
2018-04-07T00:29:08.177Z,1007.75
2018-04-07T00:29:34.391Z,1007.79
2018-04-07T00:30:00.545Z,1007.71
2018-04-07T00:30:26.695Z,1007.77
2018-04-07T00:30:52.845Z,1007.73
2018-04-07T00:31:19.030Z,1007.73
2018-04-07T00:31:45.181Z,1007.7
2018-04-07T00:32:11.365Z,1007.66
2018-04-07T00:32:37.577Z,1007.68
2018-04-07T00:33:03.732Z,1007.68
2018-04-07T00:33:29.886Z,1007.64
2018-04-07T00:33:56.042Z,1007.66
2018-04-07T00:34:22.208Z,1007.65
2018-04-07T00:34:48.360Z,1007.62
2018-04-07T00:35:14.511Z,1007.62
2018-04-07T00:35:40.678Z,1007.62
2018-04-07T00:36:06.826Z,1007.65
2018-04-07T00:36:32.980Z,1007.63
2018-04-07T00:36:59.140Z,1007.62
2018-04-07T00:37:25.287Z,1007.62
2018-04-07T00:37:51.448Z,1007.64
2018-04-07T00:38:17.603Z,1007.61
2018-04-07T00:38:43.787Z,1007.64
2018-04-07T00:39:09.946Z,1007.6
2018-04-07T00:39:36.141Z,1007.62
2018-04-07T00:40:02.337Z,1007.63
2018-04-07T00:40:28.502Z,1007.62
2018-04-07T00:40:54.649Z,1007.64
2018-04-07T00:41:20.804Z,1007.6
2018-04-07T00:41:46.974Z,1007.62
2018-04-07T00:42:13.122Z,1007.64
2018-04-07T00:42:39.275Z,1007.63
2018-04-07T00:43:05.426Z,1007.62
2018-04-07T00:43:31.595Z,1007.64
2018-04-07T00:43:57.770Z,1007.62
2018-04-07T00:44:23.913Z,1007.63
2018-04-07T00:44:50.072Z,1007.63
2018-04-07T00:45:16.227Z,1007.62
2018-04-07T00:45:42.378Z,1007.61
2018-04-07T00:46:08.553Z,1007.65
2018-04-07T00:46:34.708Z,1007.63
2018-04-07T00:47:00.875Z,1007.63
2018-04-07T00:47:27.044Z,1007.68
2018-04-07T00:47:53.205Z,1007.66
2018-04-07T00:48:19.355Z,1007.59
2018-04-07T00:48:45.506Z,1007.62
2018-04-07T00:49:11.657Z,1007.65
2018-04-07T00:49:37.839Z,1007.64
2018-04-07T00:50:03.995Z,1007.67
2018-04-07T00:50:30.141Z,1007.64
2018-04-07T00:50:56.299Z,1007.61
2018-04-07T00:51:22.450Z,1007.65
2018-04-07T00:51:48.610Z,1007.68
2018-04-07T00:52:14.761Z,1007.67
2018-04-07T00:52:40.916Z,1007.71
2018-04-07T00:53:07.114Z,1007.68
2018-04-07T00:53:33.217Z,1007.73
2018-04-07T00:53:59.387Z,1007.72
2018-04-07T00:54:25.550Z,1007.75
2018-04-07T00:54:51.707Z,1007.77
2018-04-07T00:55:17.862Z,1007.73
2018-04-07T00:55:44.030Z,1007.74
2018-04-07T00:56:10.215Z,1007.79
2018-04-07T00:56:36.366Z,1007.8
2018-04-07T00:57:02.541Z,1007.79
2018-04-07T00:57:28.680Z,1007.78
2018-04-07T00:57:54.844Z,1007.82
2018-04-07T00:58:21.027Z,1007.84
2018-04-07T00:58:47.170Z,1007.86
2018-04-07T00:59:13.338Z,1007.87
2018-04-07T00:59:39.523Z,1007.87
2018-04-07T01:00:05.712Z,1007.92
2018-04-07T01:00:31.903Z,1007.93
2018-04-07T01:00:58.055Z,1007.95
2018-04-07T01:01:24.243Z,1007.96
2018-04-07T01:01:50.400Z,1007.97
2018-04-07T01:02:16.601Z,1008
2018-04-07T01:02:42.756Z,1007.98
2018-04-07T01:03:08.941Z,1007.99
2018-04-07T01:03:35.091Z,1007.99
2018-04-07T01:04:01.280Z,1007.97
2018-04-07T01:04:27.470Z,1007.97
2018-04-07T01:04:53.616Z,1007.97
2018-04-07T01:05:19.791Z,1007.97
2018-04-07T01:05:45.959Z,1007.97
2018-04-07T01:06:12.111Z,1007.96
2018-04-07T01:06:38.284Z,1007.99
2018-04-07T01:07:04.438Z,1007.95
2018-04-07T01:07:30.585Z,1007.96
2018-04-07T01:07:56.746Z,1007.91
2018-04-07T01:08:22.898Z,1007.92
2018-04-07T01:08:49.072Z,1007.9
2018-04-07T01:09:15.238Z,1007.96
2018-04-07T01:09:41.463Z,1007.91
2018-04-07T01:10:07.645Z,1007.92
2018-04-07T01:10:33.839Z,1007.89
2018-04-07T01:10:59.987Z,1007.9
2018-04-07T01:11:26.159Z,1007.93
2018-04-07T01:11:52.351Z,1007.92
2018-04-07T01:12:18.499Z,1007.9
2018-04-07T01:12:44.656Z,1007.9
2018-04-07T01:13:10.818Z,1007.92
2018-04-07T01:13:36.976Z,1007.88
2018-04-07T01:14:03.124Z,1007.88
2018-04-07T01:14:29.279Z,1007.87
2018-04-07T01:14:55.429Z,1007.87
2018-04-07T01:15:21.590Z,1007.88
2018-04-07T01:15:47.747Z,1007.86
2018-04-07T01:16:13.898Z,1007.86
2018-04-07T01:16:40.065Z,1007.83
2018-04-07T01:17:06.240Z,1007.88
2018-04-07T01:17:32.378Z,1007.87
2018-04-07T01:17:58.570Z,1007.88
2018-04-07T01:18:24.769Z,1007.85
2018-04-07T01:18:50.876Z,1007.87
2018-04-07T01:19:17.027Z,1007.88
2018-04-07T01:19:43.182Z,1007.88
2018-04-07T01:20:09.341Z,1007.9
2018-04-07T01:20:35.504Z,1007.89
2018-04-07T01:21:01.685Z,1007.89
2018-04-07T01:21:27.848Z,1007.91
2018-04-07T01:21:53.996Z,1007.88
2018-04-07T01:22:20.146Z,1007.91
2018-04-07T01:22:46.298Z,1007.89
2018-04-07T01:23:12.446Z,1007.85
2018-04-07T01:23:38.605Z,1007.92
2018-04-07T01:24:04.768Z,1007.89
2018-04-07T01:24:30.923Z,1007.89
2018-04-07T01:24:57.070Z,1007.9
2018-04-07T01:25:23.261Z,1007.88
2018-04-07T01:25:49.422Z,1007.9
2018-04-07T01:26:15.612Z,1007.89
2018-04-07T01:26:41.767Z,1007.87
2018-04-07T01:27:07.947Z,1007.85
2018-04-07T01:27:34.111Z,1007.89
2018-04-07T01:28:00.266Z,1007.89
2018-04-07T01:28:26.433Z,1007.87
2018-04-07T01:28:52.584Z,1007.9
2018-04-07T01:29:18.769Z,1007.91
2018-04-07T01:29:44.927Z,1007.86
2018-04-07T01:30:11.081Z,1007.86
2018-04-07T01:30:37.233Z,1007.84
2018-04-07T01:31:03.384Z,1007.85
2018-04-07T01:31:29.534Z,1007.86
2018-04-07T01:31:55.704Z,1007.84
2018-04-07T01:32:21.848Z,1007.85
2018-04-07T01:32:47.998Z,1007.79
2018-04-07T01:33:14.154Z,1007.84
2018-04-07T01:33:40.334Z,1007.81
2018-04-07T01:34:06.480Z,1007.8
2018-04-07T01:34:32.639Z,1007.78
2018-04-07T01:34:58.833Z,1007.78
2018-04-07T01:35:25.030Z,1007.79
2018-04-07T01:35:51.196Z,1007.77
2018-04-07T01:36:17.335Z,1007.74
2018-04-07T01:36:43.495Z,1007.76
2018-04-07T01:37:09.648Z,1007.72
2018-04-07T01:37:35.832Z,1007.72
2018-04-07T01:38:02.034Z,1007.7
2018-04-07T01:38:28.188Z,1007.72
2018-04-07T01:38:54.368Z,1007.71
2018-04-07T01:39:20.525Z,1007.71
2018-04-07T01:39:46.684Z,1007.7
2018-04-07T01:40:12.822Z,1007.67
2018-04-07T01:40:38.981Z,1007.67
2018-04-07T01:41:05.130Z,1007.65
2018-04-07T01:41:31.289Z,1007.68
2018-04-07T01:41:57.436Z,1007.67
2018-04-07T01:42:23.590Z,1007.67
2018-04-07T01:42:49.753Z,1007.67
2018-04-07T01:43:15.919Z,1007.66
2018-04-07T01:43:42.059Z,1007.64
2018-04-07T01:44:08.215Z,1007.67
2018-04-07T01:44:34.371Z,1007.66
2018-04-07T01:45:00.521Z,1007.67
2018-04-07T01:45:26.707Z,1007.67
2018-04-07T01:45:52.864Z,1007.68
2018-04-07T01:46:19.019Z,1007.67
2018-04-07T01:46:45.179Z,1007.66
2018-04-07T01:47:11.340Z,1007.64
2018-04-07T01:47:37.486Z,1007.68
2018-04-07T01:48:03.674Z,1007.67
2018-04-07T01:48:29.825Z,1007.65
2018-04-07T01:48:55.976Z,1007.66
2018-04-07T01:49:22.149Z,1007.69
2018-04-07T01:49:48.331Z,1007.66
2018-04-07T01:50:14.498Z,1007.62
2018-04-07T01:50:40.693Z,1007.62
2018-04-07T01:51:06.851Z,1007.64
2018-04-07T01:51:33.027Z,1007.59
2018-04-07T01:51:59.169Z,1007.62
2018-04-07T01:52:25.326Z,1007.62
2018-04-07T01:52:51.518Z,1007.6
2018-04-07T01:53:17.709Z,1007.62
2018-04-07T01:53:43.863Z,1007.59
2018-04-07T01:54:10.012Z,1007.6
2018-04-07T01:54:36.165Z,1007.61
2018-04-07T01:55:02.351Z,1007.62
2018-04-07T01:55:28.527Z,1007.59
2018-04-07T01:55:54.674Z,1007.58
2018-04-07T01:56:20.852Z,1007.54
2018-04-07T01:56:47.000Z,1007.56
2018-04-07T01:57:13.153Z,1007.56
2018-04-07T01:57:39.301Z,1007.55
2018-04-07T01:58:05.450Z,1007.58
2018-04-07T01:58:31.633Z,1007.56
2018-04-07T01:58:57.787Z,1007.6
2018-04-07T01:59:23.936Z,1007.56
2018-04-07T01:59:50.126Z,1007.55
2018-04-07T02:00:16.306Z,1007.56
2018-04-07T02:00:42.510Z,1007.58
2018-04-07T02:01:08.641Z,1007.58
2018-04-07T02:01:34.808Z,1007.57
2018-04-07T02:02:00.961Z,1007.6
2018-04-07T02:02:27.124Z,1007.57
2018-04-07T02:02:53.261Z,1007.55
2018-04-07T02:03:19.461Z,1007.54
2018-04-07T02:03:45.666Z,1007.54
2018-04-07T02:04:11.841Z,1007.54
2018-04-07T02:04:38.000Z,1007.52
2018-04-07T02:05:04.149Z,1007.51
2018-04-07T02:05:30.375Z,1007.53
2018-04-07T02:05:56.529Z,1007.53
2018-04-07T02:06:22.703Z,1007.49
2018-04-07T02:06:48.859Z,1007.53
2018-04-07T02:07:15.032Z,1007.54
2018-04-07T02:07:41.192Z,1007.53
2018-04-07T02:08:07.342Z,1007.53
2018-04-07T02:08:33.491Z,1007.55
2018-04-07T02:08:59.641Z,1007.5
2018-04-07T02:09:25.791Z,1007.56
2018-04-07T02:09:51.972Z,1007.52
2018-04-07T02:10:18.162Z,1007.53
2018-04-07T02:10:44.304Z,1007.58
2018-04-07T02:11:10.465Z,1007.57
2018-04-07T02:11:36.646Z,1007.58
2018-04-07T02:12:02.793Z,1007.63
2018-04-07T02:12:28.942Z,1007.58
2018-04-07T02:12:55.109Z,1007.62
2018-04-07T02:13:21.260Z,1007.63
2018-04-07T02:13:47.409Z,1007.58
2018-04-07T02:14:13.559Z,1007.59
2018-04-07T02:14:39.717Z,1007.6
2018-04-07T02:15:05.896Z,1007.57
2018-04-07T02:15:32.050Z,1007.62
2018-04-07T02:15:58.251Z,1007.56
2018-04-07T02:16:24.403Z,1007.61
2018-04-07T02:16:50.576Z,1007.55
2018-04-07T02:17:16.756Z,1007.61
2018-04-07T02:17:42.923Z,1007.63
2018-04-07T02:18:09.100Z,1007.59
2018-04-07T02:18:35.287Z,1007.61
2018-04-07T02:19:01.476Z,1007.58
2018-04-07T02:19:27.649Z,1007.59
2018-04-07T02:19:53.798Z,1007.63
2018-04-07T02:20:19.970Z,1007.59
2018-04-07T02:20:46.106Z,1007.62
2018-04-07T02:21:12.261Z,1007.56
2018-04-07T02:21:38.412Z,1007.58
2018-04-07T02:22:04.566Z,1007.57
2018-04-07T02:22:30.731Z,1007.56
2018-04-07T02:22:56.886Z,1007.54
2018-04-07T02:23:23.040Z,1007.56
2018-04-07T02:23:49.195Z,1007.51
2018-04-07T02:24:15.367Z,1007.49
2018-04-07T02:24:41.518Z,1007.48
2018-04-07T02:25:07.664Z,1007.48
2018-04-07T02:25:33.827Z,1007.47
2018-04-07T02:25:59.977Z,1007.41
2018-04-07T02:26:26.128Z,1007.39
2018-04-07T02:26:52.301Z,1007.49
2018-04-07T02:27:18.485Z,1007.47
2018-04-07T02:27:44.645Z,1007.43
2018-04-07T02:28:10.804Z,1007.42
2018-04-07T02:28:37.001Z,1007.38
2018-04-07T02:29:03.148Z,1007.37
2018-04-07T02:29:29.300Z,1007.4
2018-04-07T02:29:55.455Z,1007.42
2018-04-07T02:30:21.636Z,1007.39
2018-04-07T02:30:47.794Z,1007.36
2018-04-07T02:31:14.008Z,1007.39
2018-04-07T02:31:40.157Z,1007.36
2018-04-07T02:32:06.334Z,1007.38
2018-04-07T02:32:32.502Z,1007.34
2018-04-07T02:32:58.709Z,1007.34
2018-04-07T02:33:24.855Z,1007.33
2018-04-07T02:33:51.035Z,1007.4
2018-04-07T02:34:17.188Z,1007.33
2018-04-07T02:34:43.384Z,1007.35
2018-04-07T02:35:09.552Z,1007.32
2018-04-07T02:35:35.711Z,1007.32
2018-04-07T02:36:01.864Z,1007.32
2018-04-07T02:36:28.013Z,1007.31
2018-04-07T02:36:54.168Z,1007.31
2018-04-07T02:37:20.334Z,1007.32
2018-04-07T02:37:46.528Z,1007.28
2018-04-07T02:38:12.674Z,1007.26
2018-04-07T02:38:38.825Z,1007.29
2018-04-07T02:39:05.036Z,1007.31
2018-04-07T02:39:31.197Z,1007.27
2018-04-07T02:39:57.372Z,1007.25
2018-04-07T02:40:23.537Z,1007.27
2018-04-07T02:40:49.683Z,1007.28
2018-04-07T02:41:15.872Z,1007.33
2018-04-07T02:41:42.052Z,1007.25
2018-04-07T02:42:08.210Z,1007.25
2018-04-07T02:42:34.493Z,1007.28
2018-04-07T02:43:00.606Z,1007.28
2018-04-07T02:43:26.750Z,1007.26
2018-04-07T02:43:52.894Z,1007.28
2018-04-07T02:44:19.041Z,1007.25
2018-04-07T02:44:45.196Z,1007.3
2018-04-07T02:45:11.367Z,1007.32
2018-04-07T02:45:37.526Z,1007.35
2018-04-07T02:46:03.703Z,1007.3
2018-04-07T02:46:29.860Z,1007.3
2018-04-07T02:46:56.068Z,1007.29
2018-04-07T02:47:22.247Z,1007.27
2018-04-07T02:47:48.359Z,1007.3
2018-04-07T02:48:14.510Z,1007.3
2018-04-07T02:48:40.685Z,1007.26
2018-04-07T02:49:06.853Z,1007.28
2018-04-07T02:49:33.005Z,1007.29
2018-04-07T02:49:59.153Z,1007.28
2018-04-07T02:50:25.367Z,1007.29
2018-04-07T02:50:51.469Z,1007.26
2018-04-07T02:51:17.614Z,1007.28
2018-04-07T02:51:43.828Z,1007.24
2018-04-07T02:52:09.970Z,1007.22
2018-04-07T02:52:36.136Z,1007.25
2018-04-07T02:53:02.304Z,1007.25
2018-04-07T02:53:28.460Z,1007.22
2018-04-07T02:53:54.656Z,1007.21
2018-04-07T02:54:20.809Z,1007.21
2018-04-07T02:54:46.958Z,1007.21
2018-04-07T02:55:13.116Z,1007.23
2018-04-07T02:55:39.297Z,1007.24
2018-04-07T02:56:05.451Z,1007.21
2018-04-07T02:56:31.636Z,1007.24
2018-04-07T02:56:57.787Z,1007.21
2018-04-07T02:57:23.965Z,1007.17
2018-04-07T02:57:50.116Z,1007.21
2018-04-07T02:58:16.267Z,1007.23
2018-04-07T02:58:42.444Z,1007.21
2018-04-07T02:59:08.596Z,1007.2
2018-04-07T02:59:34.754Z,1007.2
2018-04-07T03:00:00.894Z,1007.2
2018-04-07T03:00:27.073Z,1007.22
2018-04-07T03:00:53.221Z,1007.25
2018-04-07T03:01:19.414Z,1007.18
2018-04-07T03:01:45.573Z,1007.21
2018-04-07T03:02:11.725Z,1007.22
2018-04-07T03:02:37.902Z,1007.23
2018-04-07T03:03:04.051Z,1007.19
2018-04-07T03:03:30.198Z,1007.19
2018-04-07T03:03:56.348Z,1007.21
2018-04-07T03:04:22.534Z,1007.22
2018-04-07T03:04:48.686Z,1007.19
2018-04-07T03:05:14.854Z,1007.17
2018-04-07T03:05:41.007Z,1007.24
2018-04-07T03:06:07.164Z,1007.2
2018-04-07T03:06:33.362Z,1007.17
2018-04-07T03:06:59.511Z,1007.15
2018-04-07T03:07:25.692Z,1007.2
2018-04-07T03:07:51.845Z,1007.17
2018-04-07T03:08:18.024Z,1007.23
2018-04-07T03:08:44.173Z,1007.18
2018-04-07T03:09:10.349Z,1007.19
2018-04-07T03:09:36.527Z,1007.19
2018-04-07T03:10:02.677Z,1007.18
2018-04-07T03:10:28.830Z,1007.19
2018-04-07T03:10:54.974Z,1007.2
2018-04-07T03:11:21.153Z,1007.21
2018-04-07T03:11:47.301Z,1007.16
2018-04-07T03:12:13.454Z,1007.22
2018-04-07T03:12:39.602Z,1007.2
2018-04-07T03:13:05.751Z,1007.14
2018-04-07T03:13:31.924Z,1007.13
2018-04-07T03:13:58.078Z,1007.12
2018-04-07T03:14:24.226Z,1007.1
2018-04-07T03:14:50.375Z,1007.07
2018-04-07T03:15:16.525Z,1007.09
2018-04-07T03:15:42.677Z,1007.12
2018-04-07T03:16:08.827Z,1007.13
2018-04-07T03:16:34.981Z,1007.1
2018-04-07T03:17:01.134Z,1007.11
2018-04-07T03:17:27.388Z,1007.08
2018-04-07T03:17:53.537Z,1007.05
2018-04-07T03:18:19.692Z,1006.99
2018-04-07T03:18:45.840Z,1007.05
2018-04-07T03:19:11.989Z,1006.99
2018-04-07T03:19:38.138Z,1006.94
2018-04-07T03:20:04.288Z,1006.96
2018-04-07T03:20:30.437Z,1006.95
2018-04-07T03:20:56.587Z,1006.95
2018-04-07T03:21:22.735Z,1006.92
2018-04-07T03:21:48.886Z,1006.94
2018-04-07T03:22:15.066Z,1006.91
2018-04-07T03:22:41.223Z,1006.9
2018-04-07T03:23:07.374Z,1006.83
2018-04-07T03:23:33.558Z,1006.87
2018-04-07T03:23:59.704Z,1006.81
2018-04-07T03:24:25.856Z,1006.77
2018-04-07T03:24:52.004Z,1006.81
2018-04-07T03:25:18.152Z,1006.79
2018-04-07T03:25:44.301Z,1006.81
2018-04-07T03:26:10.508Z,1006.85
2018-04-07T03:26:36.680Z,1006.84
2018-04-07T03:27:02.829Z,1006.91
2018-04-07T03:27:28.981Z,1006.88
2018-04-07T03:27:55.129Z,1006.92
2018-04-07T03:28:21.278Z,1006.93
2018-04-07T03:28:47.426Z,1006.91
2018-04-07T03:29:13.580Z,1006.95
2018-04-07T03:29:39.729Z,1006.95
2018-04-07T03:30:05.879Z,1006.95
2018-04-07T03:30:32.030Z,1006.96
2018-04-07T03:30:58.204Z,1006.95
2018-04-07T03:31:24.383Z,1006.95
2018-04-07T03:31:50.562Z,1006.95
2018-04-07T03:32:16.744Z,1006.95
2018-04-07T03:32:42.861Z,1006.95
2018-04-07T03:33:09.010Z,1006.96
2018-04-07T03:33:35.162Z,1006.98
2018-04-07T03:34:01.309Z,1006.93
2018-04-07T03:34:27.457Z,1006.94
2018-04-07T03:34:53.604Z,1006.95
2018-04-07T03:35:19.755Z,1006.95
2018-04-07T03:35:45.904Z,1006.99
2018-04-07T03:36:12.082Z,1006.96
2018-04-07T03:36:38.258Z,1006.94
2018-04-07T03:37:04.407Z,1006.96
2018-04-07T03:37:30.561Z,1006.98
2018-04-07T03:37:56.710Z,1006.98
2018-04-07T03:38:22.861Z,1006.95
2018-04-07T03:38:49.012Z,1006.98
2018-04-07T03:39:15.162Z,1006.94
2018-04-07T03:39:41.312Z,1006.94
2018-04-07T03:40:07.462Z,1006.91
2018-04-07T03:40:33.612Z,1006.91
2018-04-07T03:40:59.762Z,1006.92
2018-04-07T03:41:25.912Z,1006.87
2018-04-07T03:41:52.063Z,1006.9
2018-04-07T03:42:18.211Z,1006.84
2018-04-07T03:42:44.362Z,1006.89
2018-04-07T03:43:10.510Z,1006.9
2018-04-07T03:43:36.663Z,1006.91
2018-04-07T03:44:02.812Z,1006.9
2018-04-07T03:44:28.962Z,1006.93
2018-04-07T03:44:55.114Z,1006.93
2018-04-07T03:45:21.264Z,1006.94
2018-04-07T03:45:47.414Z,1006.91
2018-04-07T03:46:13.562Z,1006.94
2018-04-07T03:46:39.712Z,1006.91
2018-04-07T03:47:05.888Z,1006.91
2018-04-07T03:47:32.038Z,1006.91
2018-04-07T03:47:58.189Z,1006.93
2018-04-07T03:48:24.342Z,1006.95
2018-04-07T03:48:50.491Z,1006.91
2018-04-07T03:49:16.643Z,1006.95
2018-04-07T03:49:42.797Z,1006.97
2018-04-07T03:50:08.946Z,1006.91
2018-04-07T03:50:35.099Z,1006.94
2018-04-07T03:51:01.251Z,1006.92
2018-04-07T03:51:27.403Z,1006.95
2018-04-07T03:51:53.552Z,1006.94
2018-04-07T03:52:19.705Z,1006.91
2018-04-07T03:52:45.854Z,1006.93
2018-04-07T03:53:12.033Z,1006.96
2018-04-07T03:53:38.181Z,1006.93
2018-04-07T03:54:04.332Z,1006.93
2018-04-07T03:54:30.535Z,1006.92
2018-04-07T03:54:56.688Z,1006.92
2018-04-07T03:55:22.891Z,1006.94
2018-04-07T03:55:49.071Z,1006.89
2018-04-07T03:56:15.248Z,1006.92
2018-04-07T03:56:41.400Z,1006.85
2018-04-07T03:57:07.548Z,1006.87
2018-04-07T03:57:33.700Z,1006.88
2018-04-07T03:57:59.849Z,1006.86
2018-04-07T03:58:25.998Z,1006.88
2018-04-07T03:58:52.173Z,1006.87
2018-04-07T03:59:18.320Z,1006.83
2018-04-07T03:59:44.497Z,1006.85
2018-04-07T04:00:10.646Z,1006.85
2018-04-07T04:00:36.794Z,1006.84
2018-04-07T04:01:02.945Z,1006.8
2018-04-07T04:01:29.094Z,1006.83
2018-04-07T04:01:55.245Z,1006.82
2018-04-07T04:02:21.393Z,1006.83
2018-04-07T04:02:47.542Z,1006.82
2018-04-07T04:03:13.691Z,1006.84
2018-04-07T04:03:39.841Z,1006.85
2018-04-07T04:04:05.990Z,1006.88
2018-04-07T04:04:32.140Z,1006.83
2018-04-07T04:04:58.320Z,1006.86
2018-04-07T04:05:24.468Z,1006.89
2018-04-07T04:05:50.618Z,1006.88
2018-04-07T04:06:16.794Z,1006.85
2018-04-07T04:06:42.970Z,1006.86
2018-04-07T04:07:09.150Z,1006.9
2018-04-07T04:07:35.299Z,1006.88
2018-04-07T04:08:01.446Z,1006.88
2018-04-07T04:08:27.598Z,1006.92
2018-04-07T04:08:53.747Z,1006.92
2018-04-07T04:09:19.898Z,1006.9
2018-04-07T04:09:46.076Z,1006.93
2018-04-07T04:10:12.231Z,1006.94
2018-04-07T04:10:38.376Z,1006.96
2018-04-07T04:11:04.527Z,1006.94
2018-04-07T04:11:30.674Z,1006.93
2018-04-07T04:11:56.826Z,1006.93
2018-04-07T04:12:22.974Z,1006.93
2018-04-07T04:12:49.151Z,1006.95
2018-04-07T04:13:15.302Z,1006.94
2018-04-07T04:13:41.452Z,1006.96
2018-04-07T04:14:07.633Z,1006.94
2018-04-07T04:14:33.783Z,1006.97
2018-04-07T04:14:59.962Z,1006.96
2018-04-07T04:15:26.113Z,1006.94
2018-04-07T04:15:52.265Z,1006.97
2018-04-07T04:16:18.416Z,1006.93
2018-04-07T04:16:44.567Z,1006.94
2018-04-07T04:17:10.747Z,1006.95
2018-04-07T04:17:36.896Z,1006.93
2018-04-07T04:18:03.047Z,1006.91
2018-04-07T04:18:29.222Z,1006.94
2018-04-07T04:18:55.370Z,1006.91
2018-04-07T04:19:21.541Z,1006.9
2018-04-07T04:19:47.715Z,1006.92
2018-04-07T04:20:13.865Z,1006.92
2018-04-07T04:20:40.014Z,1006.9
2018-04-07T04:21:06.164Z,1006.91
2018-04-07T04:21:32.317Z,1006.9
2018-04-07T04:21:58.467Z,1006.93
2018-04-07T04:22:24.623Z,1006.91
2018-04-07T04:22:50.773Z,1006.92
2018-04-07T04:23:16.924Z,1006.9
2018-04-07T04:23:43.072Z,1006.91
2018-04-07T04:24:09.233Z,1006.91
2018-04-07T04:24:35.375Z,1006.9
2018-04-07T04:25:01.528Z,1006.9
2018-04-07T04:25:27.672Z,1006.89
2018-04-07T04:25:53.822Z,1006.87
2018-04-07T04:26:19.972Z,1006.9
2018-04-07T04:26:46.123Z,1006.87
2018-04-07T04:27:12.272Z,1006.85
2018-04-07T04:27:38.420Z,1006.93
2018-04-07T04:28:04.568Z,1006.89
2018-04-07T04:28:30.746Z,1006.85
2018-04-07T04:28:56.922Z,1006.84
2018-04-07T04:29:23.073Z,1006.85
2018-04-07T04:29:49.224Z,1006.86
2018-04-07T04:30:15.377Z,1006.84
2018-04-07T04:30:41.553Z,1006.81
2018-04-07T04:31:07.731Z,1006.87
2018-04-07T04:31:33.882Z,1006.83
2018-04-07T04:32:00.033Z,1006.86
2018-04-07T04:32:26.210Z,1006.83
2018-04-07T04:32:52.361Z,1006.85
2018-04-07T04:33:18.510Z,1006.83
2018-04-07T04:33:44.659Z,1006.81
2018-04-07T04:34:10.812Z,1006.84
2018-04-07T04:34:36.987Z,1006.81
2018-04-07T04:35:03.142Z,1006.81
2018-04-07T04:35:29.288Z,1006.84
2018-04-07T04:35:55.464Z,1006.81
2018-04-07T04:36:21.641Z,1006.81
2018-04-07T04:36:47.796Z,1006.78
2018-04-07T04:37:13.971Z,1006.78
2018-04-07T04:37:40.119Z,1006.79
2018-04-07T04:38:06.269Z,1006.75
2018-04-07T04:38:32.419Z,1006.8
2018-04-07T04:38:58.572Z,1006.76
2018-04-07T04:39:24.725Z,1006.76
2018-04-07T04:39:50.875Z,1006.73
2018-04-07T04:40:17.025Z,1006.76
2018-04-07T04:40:43.178Z,1006.76
2018-04-07T04:41:09.333Z,1006.77
2018-04-07T04:41:35.481Z,1006.8
2018-04-07T04:42:01.656Z,1006.77
2018-04-07T04:42:27.807Z,1006.77
2018-04-07T04:42:53.956Z,1006.76
2018-04-07T04:43:20.106Z,1006.73
2018-04-07T04:43:46.254Z,1006.79
2018-04-07T04:44:12.405Z,1006.78
2018-04-07T04:44:38.556Z,1006.8
2018-04-07T04:45:04.710Z,1006.76
2018-04-07T04:45:30.858Z,1006.83
2018-04-07T04:45:57.039Z,1006.8
2018-04-07T04:46:23.215Z,1006.81
2018-04-07T04:46:49.364Z,1006.79
2018-04-07T04:47:15.515Z,1006.79
2018-04-07T04:47:41.666Z,1006.78
2018-04-07T04:48:07.816Z,1006.76
2018-04-07T04:48:33.969Z,1006.74
2018-04-07T04:49:00.124Z,1006.75
2018-04-07T04:49:26.273Z,1006.75
2018-04-07T04:49:52.423Z,1006.77
2018-04-07T04:50:18.576Z,1006.76
2018-04-07T04:50:44.725Z,1006.74
2018-04-07T04:51:10.874Z,1006.71
2018-04-07T04:51:37.023Z,1006.72
2018-04-07T04:52:03.173Z,1006.71
2018-04-07T04:52:29.323Z,1006.75
2018-04-07T04:52:55.473Z,1006.75
2018-04-07T04:53:21.622Z,1006.72
2018-04-07T04:53:47.798Z,1006.68
2018-04-07T04:54:13.948Z,1006.72
2018-04-07T04:54:40.125Z,1006.71
2018-04-07T04:55:06.321Z,1006.72
2018-04-07T04:55:32.456Z,1006.72
2018-04-07T04:55:58.605Z,1006.72
2018-04-07T04:56:24.756Z,1006.69
2018-04-07T04:56:50.906Z,1006.73
2018-04-07T04:57:17.055Z,1006.72
2018-04-07T04:57:43.208Z,1006.73
2018-04-07T04:58:09.355Z,1006.7
2018-04-07T04:58:35.506Z,1006.68
2018-04-07T04:59:01.657Z,1006.7
2018-04-07T04:59:27.806Z,1006.73
2018-04-07T04:59:53.962Z,1006.71
2018-04-07T05:00:20.110Z,1006.71
2018-04-07T05:00:46.288Z,1006.7
2018-04-07T05:01:12.435Z,1006.72
2018-04-07T05:01:38.615Z,1006.67
2018-04-07T05:02:04.765Z,1006.69
2018-04-07T05:02:30.913Z,1006.68
2018-04-07T05:02:57.067Z,1006.63
2018-04-07T05:03:23.220Z,1006.66
2018-04-07T05:03:49.399Z,1006.64
2018-04-07T05:04:15.549Z,1006.64
2018-04-07T05:04:41.698Z,1006.62
2018-04-07T05:05:07.848Z,1006.61
2018-04-07T05:05:34.000Z,1006.64
2018-04-07T05:06:00.148Z,1006.6
2018-04-07T05:06:26.299Z,1006.63
2018-04-07T05:06:52.475Z,1006.62
2018-04-07T05:07:18.669Z,1006.64
2018-04-07T05:07:44.803Z,1006.61
2018-04-07T05:08:10.979Z,1006.63
2018-04-07T05:08:37.132Z,1006.62
2018-04-07T05:09:03.306Z,1006.61
2018-04-07T05:09:29.455Z,1006.6
2018-04-07T05:09:55.606Z,1006.59
2018-04-07T05:10:21.763Z,1006.61
2018-04-07T05:10:47.909Z,1006.58
2018-04-07T05:11:14.062Z,1006.6
2018-04-07T05:11:40.216Z,1006.56
2018-04-07T05:12:06.365Z,1006.57
2018-04-07T05:12:32.516Z,1006.59
2018-04-07T05:12:58.666Z,1006.59
2018-04-07T05:13:24.818Z,1006.53
2018-04-07T05:13:50.967Z,1006.57
2018-04-07T05:14:17.116Z,1006.56
2018-04-07T05:14:43.266Z,1006.55
2018-04-07T05:15:09.418Z,1006.56
2018-04-07T05:15:35.596Z,1006.53
2018-04-07T05:16:01.748Z,1006.58
2018-04-07T05:16:27.900Z,1006.57
2018-04-07T05:16:54.051Z,1006.56
2018-04-07T05:17:20.212Z,1006.57